createdAt,value
2018-06-17T00:01:07.650Z,22.76
2018-06-17T00:03:34.285Z,22.77
2018-06-17T00:06:00.960Z,22.77
2018-06-17T00:08:27.566Z,22.72
2018-06-17T00:10:54.200Z,22.72
2018-06-17T00:13:20.857Z,22.71
2018-06-17T00:15:47.495Z,22.70
2018-06-17T00:18:14.138Z,22.70
2018-06-17T00:20:40.873Z,22.73
2018-06-17T00:23:07.510Z,22.70
2018-06-17T00:25:34.163Z,22.67
2018-06-17T00:28:00.812Z,22.67
2018-06-17T00:30:27.453Z,22.66
2018-06-17T00:32:54.093Z,22.68
2018-06-17T00:35:20.727Z,22.67
2018-06-17T00:37:47.370Z,22.65
2018-06-17T00:40:14.003Z,22.63
2018-06-17T00:42:40.642Z,22.62
2018-06-17T00:45:07.281Z,22.62
2018-06-17T00:47:33.924Z,22.61
2018-06-17T00:50:00.561Z,22.61
2018-06-17T00:52:27.207Z,22.60
2018-06-17T00:54:55.081Z,22.60
2018-06-17T00:57:20.496Z,22.57
2018-06-17T00:59:47.172Z,22.57
2018-06-17T01:02:13.818Z,22.53
2018-06-17T01:04:40.464Z,22.56
2018-06-17T01:07:07.117Z,22.54
2018-06-17T01:09:33.758Z,22.54
2018-06-17T01:12:00.394Z,22.55
2018-06-17T01:14:27.030Z,22.51
2018-06-17T01:16:53.691Z,22.52
2018-06-17T01:19:20.328Z,22.51
2018-06-17T01:21:46.978Z,22.50
2018-06-17T01:24:13.613Z,22.47
2018-06-17T01:26:40.249Z,22.49
2018-06-17T01:29:06.902Z,22.48
2018-06-17T01:31:33.548Z,22.46
2018-06-17T01:34:00.185Z,22.48
2018-06-17T01:36:26.836Z,22.48
2018-06-17T01:38:53.475Z,22.46
2018-06-17T01:41:20.122Z,22.43
2018-06-17T01:43:46.862Z,22.43
2018-06-17T01:46:13.552Z,22.44
2018-06-17T01:48:40.164Z,22.44
2018-06-17T01:51:06.816Z,22.41
2018-06-17T01:53:33.458Z,22.44
2018-06-17T01:56:00.094Z,22.42
2018-06-17T01:58:26.749Z,22.39
2018-06-17T02:00:53.389Z,22.37
2018-06-17T02:03:20.036Z,22.42
2018-06-17T02:05:46.675Z,22.39
2018-06-17T02:08:13.358Z,22.37
2018-06-17T02:10:40.004Z,22.36
2018-06-17T02:13:06.642Z,22.36
2018-06-17T02:15:33.278Z,22.35
2018-06-17T02:17:59.966Z,22.34
2018-06-17T02:20:26.602Z,22.31
2018-06-17T02:22:53.240Z,22.31
2018-06-17T02:25:19.891Z,22.32
2018-06-17T02:27:46.532Z,22.29
2018-06-17T02:30:13.203Z,22.32
2018-06-17T02:32:39.838Z,22.29
2018-06-17T02:35:06.487Z,22.26
2018-06-17T02:37:33.123Z,22.28
2018-06-17T02:39:59.820Z,22.28
2018-06-17T02:42:26.474Z,22.28
2018-06-17T02:44:53.123Z,22.26
2018-06-17T02:47:19.768Z,22.27
2018-06-17T02:49:46.404Z,22.32
2018-06-17T02:52:13.085Z,22.24
2018-06-17T02:54:39.721Z,22.23
2018-06-17T02:57:06.382Z,22.26
2018-06-17T02:59:33.031Z,22.28
2018-06-17T03:01:59.679Z,22.23
2018-06-17T03:04:26.309Z,22.26
2018-06-17T03:06:52.968Z,22.25
2018-06-17T03:09:19.598Z,22.20
2018-06-17T03:11:46.282Z,22.24
2018-06-17T03:14:12.921Z,22.21
2018-06-17T03:16:39.566Z,22.19
2018-06-17T03:19:06.256Z,22.20
2018-06-17T03:21:35.231Z,22.19
2018-06-17T03:24:01.866Z,22.18
2018-06-17T03:26:28.502Z,22.20
2018-06-17T03:28:55.176Z,22.20
2018-06-17T03:31:21.810Z,22.20
2018-06-17T03:33:48.452Z,22.24
2018-06-17T03:36:15.110Z,22.24
2018-06-17T03:38:41.747Z,22.22
2018-06-17T03:41:08.418Z,22.25
2018-06-17T03:43:35.058Z,22.17
2018-06-17T03:46:01.709Z,22.21
2018-06-17T03:48:28.364Z,22.25
2018-06-17T03:50:55.032Z,22.24
2018-06-17T03:53:21.689Z,22.25
2018-06-17T03:55:48.327Z,22.28
2018-06-17T03:58:15.007Z,22.27
2018-06-17T04:00:41.649Z,22.32
2018-06-17T04:03:08.390Z,22.26
2018-06-17T04:05:35.102Z,22.38
2018-06-17T04:08:01.742Z,22.32
2018-06-17T04:10:29.771Z,22.37
2018-06-17T04:12:55.076Z,22.38
2018-06-17T04:15:21.717Z,22.42
2018-06-17T04:17:48.398Z,22.40
2018-06-17T04:20:15.035Z,22.38
2018-06-17T04:22:41.739Z,22.43
2018-06-17T04:25:08.381Z,22.35
2018-06-17T04:27:35.012Z,22.27
2018-06-17T04:30:01.664Z,22.42
2018-06-17T04:32:28.300Z,22.40
2018-06-17T04:34:54.947Z,22.32
2018-06-17T04:37:21.598Z,22.33
2018-06-17T04:39:48.251Z,22.34
2018-06-17T04:42:14.899Z,22.35
2018-06-17T04:44:41.546Z,22.38
2018-06-17T04:47:08.193Z,22.36
2018-06-17T04:49:34.841Z,22.43
2018-06-17T04:52:01.514Z,22.37
2018-06-17T04:54:28.159Z,22.36
2018-06-17T04:56:54.798Z,22.33
2018-06-17T04:59:21.436Z,22.42
2018-06-17T05:01:48.139Z,22.41
2018-06-17T05:04:14.790Z,22.51
2018-06-17T05:06:43.590Z,22.57
2018-06-17T05:09:08.105Z,22.60
2018-06-17T05:11:34.748Z,22.74
2018-06-17T05:14:01.408Z,22.85
2018-06-17T05:16:28.056Z,22.89
2018-06-17T05:18:54.689Z,22.92
2018-06-17T05:21:21.336Z,22.99
2018-06-17T05:23:48.021Z,23.00
2018-06-17T05:26:14.669Z,23.06
2018-06-17T05:28:41.306Z,23.09
2018-06-17T05:31:07.983Z,23.09
2018-06-17T05:33:34.623Z,23.10
2018-06-17T05:36:01.299Z,23.13
2018-06-17T05:38:27.912Z,23.16
2018-06-17T05:40:54.554Z,23.15
2018-06-17T05:43:21.198Z,23.11
2018-06-17T05:45:47.881Z,23.12
2018-06-17T05:48:14.521Z,23.12
2018-06-17T05:50:41.157Z,23.14
2018-06-17T05:53:07.801Z,23.09
2018-06-17T05:55:34.484Z,23.11
2018-06-17T05:58:01.081Z,23.09
2018-06-17T06:00:27.723Z,23.11
2018-06-17T06:02:54.372Z,23.06
2018-06-17T06:05:21.013Z,23.05
2018-06-17T06:07:47.812Z,23.04
2018-06-17T06:10:14.472Z,23.05
2018-06-17T06:12:41.104Z,23.08
2018-06-17T06:15:07.748Z,23.06
2018-06-17T06:17:34.486Z,23.05
2018-06-17T06:20:01.120Z,23.16
2018-06-17T06:22:27.772Z,23.23
2018-06-17T06:24:55.937Z,23.26
2018-06-17T06:27:21.090Z,23.28
2018-06-17T06:29:47.728Z,23.22
2018-06-17T06:32:14.366Z,23.29
2018-06-17T06:34:41.019Z,23.31
2018-06-17T06:37:07.663Z,23.33
2018-06-17T06:39:34.342Z,23.32
2018-06-17T06:42:00.983Z,23.34
2018-06-17T06:44:27.640Z,23.36
2018-06-17T06:46:54.379Z,23.41
2018-06-17T06:49:21.026Z,23.38
2018-06-17T06:51:47.672Z,23.40
2018-06-17T06:54:14.365Z,23.44
2018-06-17T06:56:41.002Z,23.48
2018-06-17T06:59:07.643Z,23.60
2018-06-17T07:01:34.335Z,23.66
2018-06-17T07:04:00.936Z,23.67
2018-06-17T07:06:27.590Z,23.67
2018-06-17T07:08:54.226Z,23.79
2018-06-17T07:11:20.883Z,23.86
2018-06-17T07:13:47.518Z,23.93
2018-06-17T07:16:14.212Z,23.95
2018-06-17T07:18:40.856Z,23.98
2018-06-17T07:21:07.568Z,24.06
2018-06-17T07:23:34.223Z,24.12
2018-06-17T07:26:03.035Z,24.18
2018-06-17T07:28:29.680Z,24.20
2018-06-17T07:30:56.319Z,24.20
2018-06-17T07:33:22.963Z,24.25
2018-06-17T07:35:49.686Z,24.32
2018-06-17T07:38:16.286Z,24.33
2018-06-17T07:40:42.974Z,24.37
2018-06-17T07:43:09.620Z,24.41
2018-06-17T07:45:36.258Z,24.43
2018-06-17T07:48:02.901Z,24.50
2018-06-17T07:50:29.547Z,24.56
2018-06-17T07:52:56.233Z,24.57
2018-06-17T07:55:22.864Z,24.55
2018-06-17T07:57:49.510Z,24.56
2018-06-17T08:00:16.205Z,24.65
2018-06-17T08:02:42.902Z,24.63
2018-06-17T08:05:09.538Z,24.71
2018-06-17T08:07:36.192Z,24.67
2018-06-17T08:10:02.838Z,24.70
2018-06-17T08:12:29.473Z,24.76
2018-06-17T08:14:56.109Z,24.79
2018-06-17T08:17:22.747Z,24.82
2018-06-17T08:19:49.429Z,24.80
2018-06-17T08:22:16.127Z,24.78
2018-06-17T08:24:42.805Z,24.82
2018-06-17T08:27:09.437Z,24.87
2018-06-17T08:29:36.082Z,24.94
2018-06-17T08:32:02.733Z,24.94
2018-06-17T08:34:29.400Z,25.00
2018-06-17T08:36:56.046Z,24.90
2018-06-17T08:39:22.685Z,24.94
2018-06-17T08:41:49.319Z,24.96
2018-06-17T08:44:15.982Z,25.04
2018-06-17T08:46:42.644Z,25.07
2018-06-17T08:49:09.311Z,25.07
2018-06-17T08:51:35.952Z,25.05
2018-06-17T08:54:02.585Z,24.97
2018-06-17T08:56:29.236Z,25.04
2018-06-17T08:58:55.876Z,25.08
2018-06-17T09:01:22.521Z,25.11
2018-06-17T09:03:49.184Z,25.11
2018-06-17T09:06:15.821Z,25.11
2018-06-17T09:08:42.470Z,25.12
2018-06-17T09:11:09.107Z,25.11
2018-06-17T09:13:35.758Z,25.00
2018-06-17T09:16:02.399Z,25.06
2018-06-17T09:18:29.047Z,25.08
2018-06-17T09:20:55.685Z,25.09
2018-06-17T09:23:22.365Z,25.12
2018-06-17T09:25:49.009Z,25.12
2018-06-17T09:28:15.694Z,25.14
2018-06-17T09:30:42.379Z,25.15
2018-06-17T09:33:09.018Z,25.16
2018-06-17T09:35:35.698Z,25.06
2018-06-17T09:38:02.385Z,25.11
2018-06-17T09:40:29.024Z,25.14
2018-06-17T09:42:55.664Z,25.15
2018-06-17T09:45:22.307Z,25.21
2018-06-17T09:47:49.002Z,25.20
2018-06-17T09:50:15.637Z,25.23
2018-06-17T09:52:42.280Z,25.24
2018-06-17T09:55:08.932Z,25.24
2018-06-17T09:57:35.573Z,25.24
2018-06-17T10:00:02.369Z,25.17
2018-06-17T10:02:29.007Z,25.20
2018-06-17T10:04:55.703Z,25.25
2018-06-17T10:07:22.349Z,25.24
2018-06-17T10:09:48.985Z,25.31
2018-06-17T10:12:15.630Z,25.27
2018-06-17T10:14:42.317Z,25.32
2018-06-17T10:17:08.962Z,25.35
2018-06-17T10:19:35.597Z,25.35
2018-06-17T10:22:02.251Z,25.22
2018-06-17T10:24:28.952Z,25.24
2018-06-17T10:26:55.610Z,25.29
2018-06-17T10:29:22.318Z,25.33
2018-06-17T10:31:48.927Z,25.36
2018-06-17T10:34:15.608Z,25.39
2018-06-17T10:36:42.250Z,25.42
2018-06-17T10:39:08.902Z,25.44
2018-06-17T10:41:35.549Z,25.44
2018-06-17T10:44:02.253Z,25.35
2018-06-17T10:46:28.921Z,25.35
2018-06-17T10:48:55.641Z,25.41
2018-06-17T10:51:22.240Z,25.45
2018-06-17T10:53:48.925Z,25.53
2018-06-17T10:56:15.640Z,25.54
2018-06-17T10:58:42.205Z,25.56
2018-06-17T11:01:08.885Z,25.61
2018-06-17T11:03:35.516Z,25.62
2018-06-17T11:06:02.157Z,25.45
2018-06-17T11:08:28.802Z,25.49
2018-06-17T11:10:55.463Z,25.54
2018-06-17T11:13:22.132Z,25.57
2018-06-17T11:15:48.741Z,25.57
2018-06-17T11:18:15.415Z,25.58
2018-06-17T11:20:42.085Z,25.59
2018-06-17T11:23:08.727Z,25.58
2018-06-17T11:25:35.420Z,25.61
2018-06-17T11:28:02.058Z,25.47
2018-06-17T11:30:28.737Z,25.44
2018-06-17T11:32:55.373Z,25.47
2018-06-17T11:35:22.013Z,25.53
2018-06-17T11:37:48.673Z,25.56
2018-06-17T11:40:15.385Z,25.54
2018-06-17T11:42:42.422Z,25.56
2018-06-17T11:45:09.089Z,25.55
2018-06-17T11:47:35.693Z,25.58
2018-06-17T11:50:02.337Z,25.44
2018-06-17T11:52:29.015Z,25.46
2018-06-17T11:54:55.657Z,25.49
2018-06-17T11:57:22.298Z,25.52
2018-06-17T11:59:49.003Z,25.57
2018-06-17T12:02:15.602Z,25.62
2018-06-17T12:04:42.282Z,25.56
2018-06-17T12:07:08.920Z,25.59
2018-06-17T12:09:35.605Z,25.63
2018-06-17T12:12:02.240Z,25.47
2018-06-17T12:14:28.929Z,25.46
2018-06-17T12:16:55.578Z,25.54
2018-06-17T12:19:22.269Z,25.56
2018-06-17T12:21:48.904Z,25.61
2018-06-17T12:24:15.587Z,25.61
2018-06-17T12:26:42.269Z,25.59
2018-06-17T12:29:09.002Z,25.63
2018-06-17T12:31:35.606Z,25.61
2018-06-17T12:34:02.293Z,25.49
2018-06-17T12:36:28.933Z,25.46
2018-06-17T12:38:55.573Z,25.53
2018-06-17T12:41:22.259Z,25.53
2018-06-17T12:43:48.923Z,25.55
2018-06-17T12:46:15.637Z,25.55
2018-06-17T12:48:42.284Z,25.61
2018-06-17T12:51:08.925Z,25.64
2018-06-17T12:53:35.604Z,25.58
2018-06-17T12:56:02.228Z,25.54
2018-06-17T12:58:28.919Z,25.46
2018-06-17T13:00:55.559Z,25.51
2018-06-17T13:03:22.198Z,25.53
2018-06-17T13:05:48.923Z,25.55
2018-06-17T13:08:15.535Z,25.58
2018-06-17T13:10:42.192Z,25.61
2018-06-17T13:13:08.875Z,25.61
2018-06-17T13:15:35.582Z,25.66
2018-06-17T13:18:02.225Z,25.67
2018-06-17T13:20:28.911Z,25.49
2018-06-17T13:22:55.553Z,25.54
2018-06-17T13:25:22.226Z,25.64
2018-06-17T13:27:48.875Z,25.68
2018-06-17T13:30:15.561Z,25.66
2018-06-17T13:32:42.205Z,25.68
2018-06-17T13:35:08.848Z,25.70
2018-06-17T13:37:35.566Z,25.72
2018-06-17T13:40:02.287Z,25.74
2018-06-17T13:42:28.934Z,25.72
2018-06-17T13:44:55.585Z,25.68
2018-06-17T13:47:22.520Z,25.58
2018-06-17T13:49:49.176Z,25.65
2018-06-17T13:52:15.821Z,25.71
2018-06-17T13:54:43.781Z,25.72
2018-06-17T13:57:09.136Z,25.76
2018-06-17T13:59:35.955Z,25.77
2018-06-17T14:02:02.592Z,25.73
2018-06-17T14:04:29.205Z,25.73
2018-06-17T14:06:55.892Z,25.73
2018-06-17T14:09:22.569Z,25.74
2018-06-17T14:11:49.202Z,25.68
2018-06-17T14:14:15.845Z,25.53
2018-06-17T14:16:42.533Z,25.56
2018-06-17T14:19:09.174Z,25.57
2018-06-17T14:21:35.809Z,25.60
2018-06-17T14:24:02.456Z,25.52
2018-06-17T14:26:29.095Z,25.53
2018-06-17T14:28:55.765Z,25.59
2018-06-17T14:31:22.485Z,25.50
2018-06-17T14:33:49.046Z,25.48
2018-06-17T14:36:15.686Z,25.51
2018-06-17T14:38:42.325Z,25.55
2018-06-17T14:41:09.010Z,25.44
2018-06-17T14:43:35.650Z,25.44
2018-06-17T14:46:02.393Z,25.42
2018-06-17T14:48:29.036Z,25.41
2018-06-17T14:50:55.679Z,25.35
2018-06-17T14:53:22.347Z,25.39
2018-06-17T14:55:48.993Z,25.41
2018-06-17T14:58:15.630Z,25.40
2018-06-17T15:00:42.325Z,25.35
2018-06-17T15:03:09.001Z,25.31
2018-06-17T15:05:35.642Z,25.39
2018-06-17T15:08:02.326Z,25.30
2018-06-17T15:10:29.026Z,25.21
2018-06-17T15:12:55.658Z,25.29
2018-06-17T15:15:22.302Z,25.27
2018-06-17T15:17:48.934Z,25.21
2018-06-17T15:20:15.581Z,25.23
2018-06-17T15:22:42.256Z,25.20
2018-06-17T15:25:08.853Z,25.20
2018-06-17T15:27:35.529Z,25.20
2018-06-17T15:30:02.133Z,25.19
2018-06-17T15:32:28.773Z,25.17
2018-06-17T15:34:55.417Z,25.12
2018-06-17T15:37:22.049Z,25.06
2018-06-17T15:39:48.730Z,25.03
2018-06-17T15:42:15.371Z,25.12
2018-06-17T15:44:42.058Z,25.12
2018-06-17T15:47:08.694Z,25.11
2018-06-17T15:49:35.417Z,25.08
2018-06-17T15:52:02.063Z,25.06
2018-06-17T15:54:28.749Z,25.08
2018-06-17T15:56:55.386Z,25.10
2018-06-17T15:59:22.077Z,25.09
2018-06-17T16:01:48.762Z,25.07
2018-06-17T16:04:15.471Z,25.05
2018-06-17T16:06:42.050Z,25.06
2018-06-17T16:09:08.747Z,25.07
2018-06-17T16:11:35.385Z,25.05
2018-06-17T16:14:02.023Z,25.06
2018-06-17T16:16:28.713Z,25.03
2018-06-17T16:18:55.351Z,25.01
2018-06-17T16:21:21.998Z,25.01
2018-06-17T16:23:52.029Z,25.01
2018-06-17T16:26:18.724Z,24.99
2018-06-17T16:28:45.402Z,25.00
2018-06-17T16:31:12.009Z,24.99
2018-06-17T16:33:38.749Z,24.96
2018-06-17T16:36:05.434Z,24.96
2018-06-17T16:38:32.124Z,25.00
2018-06-17T16:40:58.810Z,24.97
2018-06-17T16:43:25.505Z,24.93
2018-06-17T16:45:52.180Z,24.93
2018-06-17T16:48:18.817Z,24.92
2018-06-17T16:50:45.518Z,24.88
2018-06-17T16:53:12.159Z,24.90
2018-06-17T16:55:38.801Z,24.91
2018-06-17T16:58:05.484Z,24.90
2018-06-17T17:00:32.125Z,24.88
2018-06-17T17:02:58.757Z,24.83
2018-06-17T17:05:25.447Z,24.82
2018-06-17T17:07:52.137Z,24.79
2018-06-17T17:10:18.775Z,24.81
2018-06-17T17:12:45.412Z,24.81
2018-06-17T17:15:12.085Z,24.80
2018-06-17T17:17:38.725Z,24.76
2018-06-17T17:20:05.405Z,24.77
2018-06-17T17:22:32.050Z,24.76
2018-06-17T17:24:58.690Z,24.79
2018-06-17T17:27:25.327Z,24.75
2018-06-17T17:29:52.088Z,24.74
2018-06-17T17:32:18.766Z,24.71
2018-06-17T17:34:45.403Z,24.71
2018-06-17T17:37:12.084Z,24.69
2018-06-17T17:39:38.802Z,24.71
2018-06-17T17:42:05.451Z,24.63
2018-06-17T17:44:32.147Z,24.67
2018-06-17T17:46:58.832Z,24.64
2018-06-17T17:49:25.497Z,24.67
2018-06-17T17:51:52.200Z,24.62
2018-06-17T17:54:18.896Z,24.64
2018-06-17T17:56:45.524Z,24.61
2018-06-17T17:59:12.189Z,24.63
2018-06-17T18:01:38.843Z,24.61
2018-06-17T18:04:05.521Z,24.60
2018-06-17T18:06:32.155Z,24.61
2018-06-17T18:08:58.863Z,24.60
2018-06-17T18:11:25.505Z,24.59
2018-06-17T18:13:52.203Z,24.56
2018-06-17T18:16:18.842Z,24.59
2018-06-17T18:18:45.478Z,24.55
2018-06-17T18:21:12.169Z,24.55
2018-06-17T18:23:38.854Z,24.52
2018-06-17T18:26:05.525Z,24.52
2018-06-17T18:28:32.172Z,24.51
2018-06-17T18:31:00.212Z,24.51
2018-06-17T18:33:25.450Z,24.54
2018-06-17T18:35:52.147Z,24.48
2018-06-17T18:38:18.783Z,24.46
2018-06-17T18:40:45.420Z,24.45
2018-06-17T18:43:12.064Z,24.45
2018-06-17T18:45:38.695Z,24.45
2018-06-17T18:48:05.378Z,24.43
2018-06-17T18:50:32.010Z,24.39
2018-06-17T18:52:58.694Z,24.40
2018-06-17T18:55:25.375Z,24.39
2018-06-17T18:57:52.156Z,24.38
2018-06-17T19:00:18.791Z,24.38
2018-06-17T19:02:45.479Z,24.38
2018-06-17T19:05:12.119Z,24.36
2018-06-17T19:07:38.755Z,24.37
2018-06-17T19:10:05.397Z,24.35
2018-06-17T19:12:32.074Z,24.33
2018-06-17T19:14:58.710Z,24.32
2018-06-17T19:17:25.379Z,24.33
2018-06-17T19:19:51.994Z,24.33
2018-06-17T19:22:18.698Z,24.30
2018-06-17T19:24:45.349Z,24.29
2018-06-17T19:27:11.977Z,24.29
2018-06-17T19:29:38.657Z,24.26
2018-06-17T19:32:05.322Z,24.23
2018-06-17T19:34:32.002Z,24.24
2018-06-17T19:36:58.636Z,24.24
2018-06-17T19:39:25.334Z,24.24
2018-06-17T19:41:51.972Z,24.21
2018-06-17T19:44:18.657Z,24.24
2018-06-17T19:46:45.293Z,24.22
2018-06-17T19:49:11.950Z,24.20
2018-06-17T19:51:38.654Z,24.18
2018-06-17T19:54:05.260Z,24.18
2018-06-17T19:56:31.902Z,24.17
2018-06-17T19:58:58.550Z,24.18
2018-06-17T20:01:25.223Z,24.13
2018-06-17T20:03:51.862Z,24.15
2018-06-17T20:06:18.548Z,24.12
2018-06-17T20:08:45.150Z,24.12
2018-06-17T20:11:11.858Z,24.12
2018-06-17T20:13:38.527Z,24.10
2018-06-17T20:16:05.127Z,24.07
2018-06-17T20:18:31.839Z,24.07
2018-06-17T20:20:58.490Z,24.05
2018-06-17T20:23:25.128Z,24.03
2018-06-17T20:25:51.785Z,24.04
2018-06-17T20:28:18.420Z,24.01
2018-06-17T20:30:45.069Z,24.00
2018-06-17T20:33:11.708Z,24.02
2018-06-17T20:35:38.348Z,23.99
2018-06-17T20:38:05.001Z,23.98
2018-06-17T20:40:31.635Z,23.99
2018-06-17T20:42:58.281Z,23.94
2018-06-17T20:45:24.914Z,23.95
2018-06-17T20:47:51.574Z,23.94
2018-06-17T20:50:18.240Z,23.92
2018-06-17T20:52:44.865Z,23.91
2018-06-17T20:55:11.503Z,23.90
2018-06-17T20:57:38.152Z,23.91
2018-06-17T21:00:04.838Z,23.92
2018-06-17T21:02:31.474Z,23.89
2018-06-17T21:04:58.114Z,23.90
2018-06-17T21:07:24.829Z,23.86
2018-06-17T21:09:51.473Z,23.86
2018-06-17T21:12:18.116Z,23.84
2018-06-17T21:14:44.753Z,23.84
2018-06-17T21:17:11.444Z,23.84
2018-06-17T21:19:38.061Z,23.82
2018-06-17T21:22:04.709Z,23.81
2018-06-17T21:24:31.339Z,23.81
2018-06-17T21:26:57.987Z,23.82
2018-06-17T21:29:24.654Z,23.77
2018-06-17T21:31:51.254Z,23.78
2018-06-17T21:34:17.897Z,23.76
2018-06-17T21:36:44.535Z,23.76
2018-06-17T21:39:11.179Z,23.76
2018-06-17T21:41:37.819Z,23.76
2018-06-17T21:44:04.465Z,23.76
2018-06-17T21:46:31.098Z,23.75
2018-06-17T21:48:57.733Z,23.72
2018-06-17T21:51:24.377Z,23.73
2018-06-17T21:53:51.020Z,23.71
2018-06-17T21:56:17.649Z,23.70
2018-06-17T21:58:44.294Z,23.71
2018-06-17T22:01:10.929Z,23.68
2018-06-17T22:03:37.568Z,23.66
2018-06-17T22:06:04.224Z,23.65
2018-06-17T22:08:30.964Z,23.64
2018-06-17T22:10:57.602Z,23.67
2018-06-17T22:13:24.253Z,23.64
2018-06-17T22:15:50.888Z,23.64
2018-06-17T22:18:17.534Z,23.62
2018-06-17T22:20:44.180Z,23.60
2018-06-17T22:23:10.819Z,23.61
2018-06-17T22:25:37.462Z,23.61
2018-06-17T22:28:04.203Z,23.59
2018-06-17T22:30:30.853Z,23.57
2018-06-17T22:32:57.520Z,23.58
2018-06-17T22:35:24.161Z,23.59
2018-06-17T22:37:50.815Z,23.60
2018-06-17T22:40:17.453Z,23.54
2018-06-17T22:42:44.093Z,23.53
2018-06-17T22:45:10.730Z,23.52
2018-06-17T22:47:37.366Z,23.50
2018-06-17T22:50:04.006Z,23.50
2018-06-17T22:52:30.648Z,23.49
2018-06-17T22:54:57.285Z,23.48
2018-06-17T22:57:23.922Z,23.49
2018-06-17T22:59:50.566Z,23.51
2018-06-17T23:02:17.200Z,23.49
2018-06-17T23:04:43.829Z,23.45
2018-06-17T23:07:10.485Z,23.46
2018-06-17T23:09:37.131Z,23.43
2018-06-17T23:12:03.772Z,23.43
2018-06-17T23:14:30.413Z,23.43
2018-06-17T23:16:57.054Z,23.43
2018-06-17T23:19:23.698Z,23.39
2018-06-17T23:21:50.330Z,23.40
2018-06-17T23:24:16.965Z,23.40
2018-06-17T23:26:43.613Z,23.38
2018-06-17T23:29:10.242Z,23.39
2018-06-17T23:31:36.885Z,23.35
2018-06-17T23:34:03.522Z,23.36
2018-06-17T23:36:30.157Z,23.39
2018-06-17T23:38:56.838Z,23.36
2018-06-17T23:41:23.441Z,23.34
2018-06-17T23:43:50.083Z,23.36
2018-06-17T23:46:16.725Z,23.33
2018-06-17T23:48:43.368Z,23.34
2018-06-17T23:51:10.009Z,23.32
2018-06-17T23:53:36.650Z,23.32
2018-06-17T23:56:03.293Z,23.30
2018-06-17T23:58:29.926Z,23.30
